Terminal Aerodrome Forecast
Issued by NWS Greer, SC

Home | Current Version | Previous Version | Text Only | Print | Product List | Glossary On
Versions: 1 2 3 4 5 6 7 8 9 10 11 12 13 14 15 16 17 18 19 20 21 22 23 24 25 26 27 28 29 30 31 32 33 34 35 36 37 38 39 40 41 42 43 44 45 46
559
FTUS42 KGSP 201010 AAB
TAFCLT
TAF AMD
KCLT 201010Z 2010/2106 14011KT 6SM -SHRA BR OVC030
     FM201200 18010KT 4SM -SHRA BR OVC007
     FM201600 20006KT P6SM OVC007
     FM202200 20003KT P6SM BKN035
     FM210400 21003KT P6SM BKN025=

USA.gov is the U.S. government's official web portal to all federal, state and local government web resources and services.